sensor_id;sensor_type;location;lat;lon;timestamp;P1;durP1;ratioP1;P2;durP2;ratioP2
27833;SDS011;15200;50.570;7.244;2023-05-07T00:01:02;3.05;;;2.10;;
27833;SDS011;15200;50.570;7.244;2023-05-07T00:03:32;4.70;;;1.85;;
27833;SDS011;15200;50.570;7.244;2023-05-07T00:06:00;4.72;;;1.72;;
27833;SDS011;15200;50.570;7.244;2023-05-07T00:08:27;5.78;;;1.77;;
27833;SDS011;15200;50.570;7.244;2023-05-07T00:10:55;3.72;;;2.30;;
27833;SDS011;15200;50.570;7.244;2023-05-07T00:13:23;11.30;;;2.42;;
27833;SDS011;15200;50.570;7.244;2023-05-07T00:15:53;4.33;;;2.58;;
27833;SDS011;15200;50.570;7.244;2023-05-07T00:18:21;3.02;;;2.37;;
27833;SDS011;15200;50.570;7.244;2023-05-07T00:20:51;6.87;;;2.27;;
27833;SDS011;15200;50.570;7.244;2023-05-07T00:23:18;3.77;;;2.00;;
27833;SDS011;15200;50.570;7.244;2023-05-07T00:25:47;5.80;;;2.00;;
27833;SDS011;15200;50.570;7.244;2023-05-07T00:28:15;5.55;;;2.10;;
27833;SDS011;15200;50.570;7.244;2023-05-07T00:30:43;3.37;;;2.10;;
27833;SDS011;15200;50.570;7.244;2023-05-07T00:33:11;3.37;;;2.30;;
27833;SDS011;15200;50.570;7.244;2023-05-07T00:35:41;4.12;;;2.35;;
27833;SDS011;15200;50.570;7.244;2023-05-07T00:38:10;4.30;;;2.42;;
27833;SDS011;15200;50.570;7.244;2023-05-07T00:40:37;5.55;;;2.50;;
27833;SDS011;15200;50.570;7.244;2023-05-07T00:43:05;3.62;;;2.20;;
27833;SDS011;15200;50.570;7.244;2023-05-07T00:45:34;5.78;;;2.35;;
27833;SDS011;15200;50.570;7.244;2023-05-07T00:48:03;2.92;;;1.87;;
27833;SDS011;15200;50.570;7.244;2023-05-07T00:50:32;4.60;;;2.42;;
27833;SDS011;15200;50.570;7.244;2023-05-07T00:53:03;3.55;;;2.50;;
27833;SDS011;15200;50.570;7.244;2023-05-07T00:55:32;4.22;;;2.47;;
27833;SDS011;15200;50.570;7.244;2023-05-07T00:58:00;4.78;;;2.00;;
27833;SDS011;15200;50.570;7.244;2023-05-07T01:00:29;2.92;;;2.20;;
27833;SDS011;15200;50.570;7.244;2023-05-07T01:02:58;4.20;;;2.45;;
27833;SDS011;15200;50.570;7.244;2023-05-07T01:05:27;6.05;;;2.92;;
27833;SDS011;15200;50.570;7.244;2023-05-07T01:07:58;2.60;;;2.25;;
27833;SDS011;15200;50.570;7.244;2023-05-07T01:10:27;6.25;;;3.30;;
27833;SDS011;15200;50.570;7.244;2023-05-07T01:12:57;6.33;;;3.33;;
27833;SDS011;15200;50.570;7.244;2023-05-07T01:15:28;4.62;;;3.20;;
27833;SDS011;15200;50.570;7.244;2023-05-07T01:17:56;3.50;;;3.20;;
27833;SDS011;15200;50.570;7.244;2023-05-07T01:20:26;7.87;;;3.20;;
27833;SDS011;15200;50.570;7.244;2023-05-07T01:22:55;3.80;;;3.35;;
27833;SDS011;15200;50.570;7.244;2023-05-07T01:25:25;6.97;;;3.45;;
27833;SDS011;15200;50.570;7.244;2023-05-07T01:27:54;6.45;;;3.83;;
27833;SDS011;15200;50.570;7.244;2023-05-07T01:30:21;5.08;;;3.30;;
27833;SDS011;15200;50.570;7.244;2023-05-07T01:33:01;6.12;;;3.35;;
27833;SDS011;15200;50.570;7.244;2023-05-07T01:35:30;6.00;;;2.80;;
27833;SDS011;15200;50.570;7.244;2023-05-07T01:37:59;3.72;;;2.92;;
27833;SDS011;15200;50.570;7.244;2023-05-07T01:40:27;6.03;;;2.75;;
27833;SDS011;15200;50.570;7.244;2023-05-07T01:42:57;5.37;;;3.20;;
27833;SDS011;15200;50.570;7.244;2023-05-07T01:45:25;4.42;;;2.50;;
27833;SDS011;15200;50.570;7.244;2023-05-07T01:47:54;6.60;;;2.75;;
27833;SDS011;15200;50.570;7.244;2023-05-07T01:50:24;5.97;;;2.52;;
27833;SDS011;15200;50.570;7.244;2023-05-07T01:52:54;3.12;;;2.50;;
27833;SDS011;15200;50.570;7.244;2023-05-07T01:55:24;6.45;;;3.10;;
27833;SDS011;15200;50.570;7.244;2023-05-07T01:57:57;4.47;;;2.80;;
27833;SDS011;15200;50.570;7.244;2023-05-07T02:00:24;3.95;;;2.58;;
27833;SDS011;15200;50.570;7.244;2023-05-07T02:02:54;5.17;;;2.77;;
27833;SDS011;15200;50.570;7.244;2023-05-07T02:05:22;3.22;;;2.80;;
27833;SDS011;15200;50.570;7.244;2023-05-07T02:07:51;7.78;;;3.00;;
27833;SDS011;15200;50.570;7.244;2023-05-07T02:10:20;6.15;;;2.65;;
27833;SDS011;15200;50.570;7.244;2023-05-07T02:12:48;6.62;;;2.83;;
27833;SDS011;15200;50.570;7.244;2023-05-07T02:15:17;6.78;;;3.15;;
27833;SDS011;15200;50.570;7.244;2023-05-07T02:20:33;6.00;;;3.05;;
27833;SDS011;15200;50.570;7.244;2023-05-07T02:23:02;8.03;;;2.72;;
27833;SDS011;15200;50.570;7.244;2023-05-07T02:25:32;6.62;;;2.87;;
27833;SDS011;15200;50.570;7.244;2023-05-07T02:28:01;3.98;;;3.35;;
27833;SDS011;15200;50.570;7.244;2023-05-07T02:30:31;5.05;;;2.58;;
27833;SDS011;15200;50.570;7.244;2023-05-07T02:33:02;4.45;;;2.77;;
27833;SDS011;15200;50.570;7.244;2023-05-07T02:35:30;4.20;;;2.85;;
27833;SDS011;15200;50.570;7.244;2023-05-07T02:37:58;3.42;;;2.62;;
27833;SDS011;15200;50.570;7.244;2023-05-07T02:40:25;5.70;;;2.80;;
27833;SDS011;15200;50.570;7.244;2023-05-07T02:42:55;3.37;;;2.40;;
27833;SDS011;15200;50.570;7.244;2023-05-07T02:45:24;6.62;;;2.55;;
27833;SDS011;15200;50.570;7.244;2023-05-07T02:47:52;2.72;;;2.27;;
27833;SDS011;15200;50.570;7.244;2023-05-07T02:50:22;3.87;;;2.20;;
27833;SDS011;15200;50.570;7.244;2023-05-07T02:52:53;2.65;;;2.15;;
27833;SDS011;15200;50.570;7.244;2023-05-07T02:55:21;6.78;;;2.70;;
27833;SDS011;15200;50.570;7.244;2023-05-07T02:57:48;3.77;;;2.37;;
27833;SDS011;15200;50.570;7.244;2023-05-07T03:00:17;2.87;;;2.37;;
27833;SDS011;15200;50.570;7.244;2023-05-07T03:02:45;3.37;;;2.58;;
27833;SDS011;15200;50.570;7.244;2023-05-07T03:05:13;5.83;;;2.90;;
27833;SDS011;15200;50.570;7.244;2023-05-07T03:07:41;5.33;;;2.85;;
27833;SDS011;15200;50.570;7.244;2023-05-07T03:10:11;2.80;;;2.58;;
27833;SDS011;15200;50.570;7.244;2023-05-07T03:12:42;6.50;;;2.65;;
27833;SDS011;15200;50.570;7.244;2023-05-07T03:15:13;5.55;;;2.77;;
27833;SDS011;15200;50.570;7.244;2023-05-07T03:17:40;6.53;;;2.90;;
27833;SDS011;15200;50.570;7.244;2023-05-07T03:20:10;3.70;;;2.67;;
27833;SDS011;15200;50.570;7.244;2023-05-07T03:22:38;3.67;;;2.60;;
27833;SDS011;15200;50.570;7.244;2023-05-07T03:25:08;4.28;;;2.58;;
27833;SDS011;15200;50.570;7.244;2023-05-07T03:27:37;2.87;;;2.67;;
27833;SDS011;15200;50.570;7.244;2023-05-07T03:30:07;2.95;;;2.70;;
27833;SDS011;15200;50.570;7.244;2023-05-07T03:32:36;7.83;;;2.70;;
27833;SDS011;15200;50.570;7.244;2023-05-07T03:35:06;4.28;;;2.90;;
27833;SDS011;15200;50.570;7.244;2023-05-07T03:37:35;4.35;;;3.05;;
27833;SDS011;15200;50.570;7.244;2023-05-07T03:40:04;3.17;;;2.50;;
27833;SDS011;15200;50.570;7.244;2023-05-07T03:42:33;5.65;;;2.75;;
27833;SDS011;15200;50.570;7.244;2023-05-07T03:45:05;5.50;;;3.12;;
27833;SDS011;15200;50.570;7.244;2023-05-07T03:47:34;4.78;;;3.25;;
27833;SDS011;15200;50.570;7.244;2023-05-07T03:50:01;5.05;;;3.00;;
27833;SDS011;15200;50.570;7.244;2023-05-07T03:52:29;7.50;;;3.10;;
27833;SDS011;15200;50.570;7.244;2023-05-07T03:54:58;2.62;;;2.42;;
27833;SDS011;15200;50.570;7.244;2023-05-07T03:57:25;7.70;;;3.08;;
27833;SDS011;15200;50.570;7.244;2023-05-07T03:59:53;6.53;;;3.05;;
27833;SDS011;15200;50.570;7.244;2023-05-07T04:02:20;4.60;;;2.72;;
27833;SDS011;15200;50.570;7.244;2023-05-07T04:04:50;3.77;;;3.00;;
27833;SDS011;15200;50.570;7.244;2023-05-07T04:07:19;5.03;;;2.95;;
27833;SDS011;15200;50.570;7.244;2023-05-07T04:09:48;5.65;;;2.80;;
27833;SDS011;15200;50.570;7.244;2023-05-07T04:12:17;7.10;;;2.67;;
27833;SDS011;15200;50.570;7.244;2023-05-07T04:14:45;4.28;;;2.85;;
27833;SDS011;15200;50.570;7.244;2023-05-07T04:17:15;5.87;;;2.65;;
27833;SDS011;15200;50.570;7.244;2023-05-07T04:19:43;4.42;;;2.70;;
27833;SDS011;15200;50.570;7.244;2023-05-07T04:22:12;3.08;;;2.60;;
27833;SDS011;15200;50.570;7.244;2023-05-07T04:24:42;4.72;;;2.90;;
27833;SDS011;15200;50.570;7.244;2023-05-07T04:27:09;5.45;;;2.47;;
27833;SDS011;15200;50.570;7.244;2023-05-07T04:29:37;9.58;;;2.83;;
27833;SDS011;15200;50.570;7.244;2023-05-07T04:32:06;5.05;;;2.52;;
27833;SDS011;15200;50.570;7.244;2023-05-07T04:34:36;3.37;;;2.50;;
27833;SDS011;15200;50.570;7.244;2023-05-07T04:37:03;3.72;;;2.67;;
27833;SDS011;15200;50.570;7.244;2023-05-07T04:39:32;3.75;;;2.30;;
27833;SDS011;15200;50.570;7.244;2023-05-07T04:42:03;3.20;;;2.42;;
27833;SDS011;15200;50.570;7.244;2023-05-07T04:44:31;5.10;;;2.30;;
27833;SDS011;15200;50.570;7.244;2023-05-07T04:47:01;3.12;;;2.52;;
27833;SDS011;15200;50.570;7.244;2023-05-07T04:49:28;3.62;;;2.37;;
27833;SDS011;15200;50.570;7.244;2023-05-07T04:51:58;3.27;;;2.45;;
27833;SDS011;15200;50.570;7.244;2023-05-07T04:54:25;4.60;;;2.45;;
27833;SDS011;15200;50.570;7.244;2023-05-07T04:56:55;6.40;;;2.40;;
27833;SDS011;15200;50.570;7.244;2023-05-07T04:59:24;4.85;;;2.90;;
27833;SDS011;15200;50.570;7.244;2023-05-07T05:01:52;5.08;;;2.87;;
27833;SDS011;15200;50.570;7.244;2023-05-07T05:04:21;4.37;;;2.83;;
27833;SDS011;15200;50.570;7.244;2023-05-07T05:06:48;9.75;;;3.05;;
27833;SDS011;15200;50.570;7.244;2023-05-07T05:09:16;4.03;;;3.00;;
27833;SDS011;15200;50.570;7.244;2023-05-07T05:11:45;7.00;;;3.08;;
27833;SDS011;15200;50.570;7.244;2023-05-07T05:14:12;5.70;;;3.02;;
27833;SDS011;15200;50.570;7.244;2023-05-07T05:16:42;5.53;;;2.72;;
27833;SDS011;15200;50.570;7.244;2023-05-07T05:19:09;3.98;;;2.72;;
27833;SDS011;15200;50.570;7.244;2023-05-07T05:21:37;3.77;;;3.00;;
27833;SDS011;15200;50.570;7.244;2023-05-07T05:24:06;5.72;;;3.50;;
27833;SDS011;15200;50.570;7.244;2023-05-07T05:26:35;4.20;;;2.98;;
27833;SDS011;15200;50.570;7.244;2023-05-07T05:29:06;3.37;;;3.08;;
27833;SDS011;15200;50.570;7.244;2023-05-07T05:31:34;3.65;;;3.27;;
27833;SDS011;15200;50.570;7.244;2023-05-07T05:34:04;7.95;;;3.58;;
27833;SDS011;15200;50.570;7.244;2023-05-07T05:36:33;4.58;;;3.72;;
27833;SDS011;15200;50.570;7.244;2023-05-07T05:39:01;5.03;;;3.90;;
27833;SDS011;15200;50.570;7.244;2023-05-07T05:41:30;5.80;;;4.20;;
27833;SDS011;15200;50.570;7.244;2023-05-07T05:43:58;5.35;;;3.58;;
27833;SDS011;15200;50.570;7.244;2023-05-07T05:46:26;4.97;;;3.37;;
27833;SDS011;15200;50.570;7.244;2023-05-07T05:48:54;4.95;;;3.85;;
27833;SDS011;15200;50.570;7.244;2023-05-07T05:51:22;4.83;;;4.33;;
27833;SDS011;15200;50.570;7.244;2023-05-07T05:53:49;6.62;;;3.95;;
27833;SDS011;15200;50.570;7.244;2023-05-07T05:56:18;5.37;;;3.72;;
27833;SDS011;15200;50.570;7.244;2023-05-07T05:58:47;5.28;;;3.40;;
27833;SDS011;15200;50.570;7.244;2023-05-07T06:01:16;9.13;;;3.87;;
27833;SDS011;15200;50.570;7.244;2023-05-07T06:03:45;7.45;;;3.65;;
27833;SDS011;15200;50.570;7.244;2023-05-07T06:06:14;4.83;;;3.33;;
27833;SDS011;15200;50.570;7.244;2023-05-07T06:08:44;4.60;;;3.37;;
27833;SDS011;15200;50.570;7.244;2023-05-07T06:11:12;5.37;;;3.42;;
27833;SDS011;15200;50.570;7.244;2023-05-07T06:13:40;3.72;;;3.40;;
27833;SDS011;15200;50.570;7.244;2023-05-07T06:16:08;6.50;;;3.70;;
27833;SDS011;15200;50.570;7.244;2023-05-07T06:18:37;4.00;;;3.67;;
27833;SDS011;15200;50.570;7.244;2023-05-07T06:21:05;4.87;;;4.12;;
27833;SDS011;15200;50.570;7.244;2023-05-07T06:23:34;7.97;;;4.22;;
27833;SDS011;15200;50.570;7.244;2023-05-07T06:26:02;4.25;;;3.83;;
27833;SDS011;15200;50.570;7.244;2023-05-07T06:28:33;4.72;;;4.10;;
27833;SDS011;15200;50.570;7.244;2023-05-07T06:31:11;5.62;;;4.65;;
27833;SDS011;15200;50.570;7.244;2023-05-07T06:33:40;5.85;;;3.98;;
27833;SDS011;15200;50.570;7.244;2023-05-07T06:36:09;4.83;;;4.37;;
27833;SDS011;15200;50.570;7.244;2023-05-07T06:38:39;4.78;;;4.30;;
27833;SDS011;15200;50.570;7.244;2023-05-07T06:41:07;7.33;;;4.85;;
27833;SDS011;15200;50.570;7.244;2023-05-07T06:43:35;5.10;;;4.28;;
27833;SDS011;15200;50.570;7.244;2023-05-07T06:46:05;8.15;;;5.05;;
27833;SDS011;15200;50.570;7.244;2023-05-07T06:48:34;5.25;;;4.67;;
27833;SDS011;15200;50.570;7.244;2023-05-07T06:51:02;5.70;;;4.17;;
27833;SDS011;15200;50.570;7.244;2023-05-07T06:53:32;5.25;;;3.90;;
27833;SDS011;15200;50.570;7.244;2023-05-07T06:56:02;7.62;;;4.25;;
27833;SDS011;15200;50.570;7.244;2023-05-07T06:58:29;4.60;;;3.50;;
27833;SDS011;15200;50.570;7.244;2023-05-07T07:00:58;4.47;;;3.52;;
27833;SDS011;15200;50.570;7.244;2023-05-07T07:03:26;6.87;;;3.50;;
27833;SDS011;15200;50.570;7.244;2023-05-07T07:05:56;5.75;;;3.22;;
27833;SDS011;15200;50.570;7.244;2023-05-07T07:08:23;6.62;;;3.90;;
27833;SDS011;15200;50.570;7.244;2023-05-07T07:10:53;4.35;;;3.60;;
27833;SDS011;15200;50.570;7.244;2023-05-07T07:13:21;5.92;;;3.52;;
27833;SDS011;15200;50.570;7.244;2023-05-07T07:15:49;4.95;;;3.87;;
27833;SDS011;15200;50.570;7.244;2023-05-07T07:18:19;7.30;;;3.90;;
27833;SDS011;15200;50.570;7.244;2023-05-07T07:20:49;3.55;;;3.25;;
27833;SDS011;15200;50.570;7.244;2023-05-07T07:23:17;4.20;;;3.55;;
27833;SDS011;15200;50.570;7.244;2023-05-07T07:25:48;5.65;;;4.35;;
27833;SDS011;15200;50.570;7.244;2023-05-07T07:28:17;8.60;;;3.98;;
27833;SDS011;15200;50.570;7.244;2023-05-07T07:30:46;5.85;;;3.98;;
27833;SDS011;15200;50.570;7.244;2023-05-07T07:33:16;5.62;;;3.37;;
27833;SDS011;15200;50.570;7.244;2023-05-07T07:35:44;7.05;;;3.62;;
27833;SDS011;15200;50.570;7.244;2023-05-07T07:38:13;4.15;;;3.42;;
27833;SDS011;15200;50.570;7.244;2023-05-07T07:40:41;4.08;;;3.67;;
27833;SDS011;15200;50.570;7.244;2023-05-07T07:43:11;4.30;;;3.25;;
27833;SDS011;15200;50.570;7.244;2023-05-07T07:45:38;6.67;;;3.52;;
27833;SDS011;15200;50.570;7.244;2023-05-07T07:48:08;4.72;;;3.42;;
27833;SDS011;15200;50.570;7.244;2023-05-07T07:50:35;5.97;;;3.05;;
27833;SDS011;15200;50.570;7.244;2023-05-07T07:53:03;3.60;;;2.62;;
27833;SDS011;15200;50.570;7.244;2023-05-07T07:55:32;4.33;;;2.37;;
27833;SDS011;15200;50.570;7.244;2023-05-07T07:58:00;4.75;;;3.02;;
27833;SDS011;15200;50.570;7.244;2023-05-07T08:00:27;5.20;;;2.90;;
27833;SDS011;15200;50.570;7.244;2023-05-07T08:02:57;7.28;;;2.80;;
27833;SDS011;15200;50.570;7.244;2023-05-07T08:05:27;4.25;;;2.58;;
27833;SDS011;15200;50.570;7.244;2023-05-07T08:07:54;4.75;;;2.92;;
27833;SDS011;15200;50.570;7.244;2023-05-07T08:10:25;3.92;;;2.70;;
27833;SDS011;15200;50.570;7.244;2023-05-07T08:12:53;2.92;;;2.42;;
27833;SDS011;15200;50.570;7.244;2023-05-07T08:15:22;4.08;;;2.58;;
27833;SDS011;15200;50.570;7.244;2023-05-07T08:17:49;7.50;;;2.47;;
27833;SDS011;15200;50.570;7.244;2023-05-07T08:20:17;6.00;;;2.27;;
27833;SDS011;15200;50.570;7.244;2023-05-07T08:22:46;4.08;;;2.02;;
27833;SDS011;15200;50.570;7.244;2023-05-07T08:25:13;2.12;;;1.98;;
27833;SDS011;15200;50.570;7.244;2023-05-07T08:27:44;2.85;;;1.95;;
27833;SDS011;15200;50.570;7.244;2023-05-07T08:30:13;4.37;;;2.30;;
27833;SDS011;15200;50.570;7.244;2023-05-07T08:32:43;2.75;;;2.02;;
27833;SDS011;15200;50.570;7.244;2023-05-07T08:35:13;3.02;;;1.87;;
27833;SDS011;15200;50.570;7.244;2023-05-07T08:37:43;4.22;;;2.22;;
27833;SDS011;15200;50.570;7.244;2023-05-07T08:40:11;3.33;;;2.10;;
27833;SDS011;15200;50.570;7.244;2023-05-07T08:42:40;2.62;;;1.98;;
27833;SDS011;15200;50.570;7.244;2023-05-07T08:45:12;3.60;;;1.87;;
27833;SDS011;15200;50.570;7.244;2023-05-07T08:47:46;2.30;;;1.80;;
27833;SDS011;15200;50.570;7.244;2023-05-07T08:50:11;5.00;;;2.00;;
27833;SDS011;15200;50.570;7.244;2023-05-07T08:52:39;2.33;;;1.75;;
27833;SDS011;15200;50.570;7.244;2023-05-07T08:55:09;3.95;;;2.08;;
27833;SDS011;15200;50.570;7.244;2023-05-07T08:57:38;3.90;;;1.87;;
27833;SDS011;15200;50.570;7.244;2023-05-07T09:00:06;2.95;;;1.87;;
27833;SDS011;15200;50.570;7.244;2023-05-07T09:02:36;3.85;;;1.30;;
27833;SDS011;15200;50.570;7.244;2023-05-07T09:05:07;4.58;;;1.80;;
27833;SDS011;15200;50.570;7.244;2023-05-07T09:07:35;2.15;;;1.70;;
27833;SDS011;15200;50.570;7.244;2023-05-07T09:10:06;3.27;;;1.57;;
27833;SDS011;15200;50.570;7.244;2023-05-07T09:12:34;2.60;;;1.40;;
27833;SDS011;15200;50.570;7.244;2023-05-07T09:15:05;3.15;;;1.75;;
27833;SDS011;15200;50.570;7.244;2023-05-07T09:17:35;2.70;;;1.55;;
27833;SDS011;15200;50.570;7.244;2023-05-07T09:20:05;1.70;;;1.52;;
27833;SDS011;15200;50.570;7.244;2023-05-07T09:22:33;1.50;;;1.40;;
27833;SDS011;15200;50.570;7.244;2023-05-07T09:25:03;2.08;;;1.50;;
27833;SDS011;15200;50.570;7.244;2023-05-07T09:27:34;1.45;;;1.35;;
27833;SDS011;15200;50.570;7.244;2023-05-07T09:30:07;1.87;;;1.35;;
27833;SDS011;15200;50.570;7.244;2023-05-07T09:32:36;4.22;;;1.60;;
27833;SDS011;15200;50.570;7.244;2023-05-07T09:35:08;2.12;;;1.50;;
27833;SDS011;15200;50.570;7.244;2023-05-07T09:37:35;3.15;;;1.40;;
27833;SDS011;15200;50.570;7.244;2023-05-07T09:40:05;3.50;;;1.27;;
27833;SDS011;15200;50.570;7.244;2023-05-07T09:42:34;3.55;;;1.55;;
27833;SDS011;15200;50.570;7.244;2023-05-07T09:45:02;4.55;;;1.50;;
27833;SDS011;15200;50.570;7.244;2023-05-07T09:47:33;4.28;;;1.67;;
27833;SDS011;15200;50.570;7.244;2023-05-07T09:50:04;2.85;;;1.52;;
27833;SDS011;15200;50.570;7.244;2023-05-07T09:52:39;3.80;;;1.20;;
27833;SDS011;15200;50.570;7.244;2023-05-07T09:55:07;5.15;;;1.47;;
27833;SDS011;15200;50.570;7.244;2023-05-07T09:57:36;3.00;;;1.40;;
27833;SDS011;15200;50.570;7.244;2023-05-07T10:00:07;1.55;;;1.40;;
27833;SDS011;15200;50.570;7.244;2023-05-07T10:02:36;1.40;;;1.27;;
27833;SDS011;15200;50.570;7.244;2023-05-07T10:05:04;3.05;;;1.52;;
27833;SDS011;15200;50.570;7.244;2023-05-07T10:07:34;4.90;;;1.55;;
27833;SDS011;15200;50.570;7.244;2023-05-07T10:10:02;2.90;;;1.27;;
27833;SDS011;15200;50.570;7.244;2023-05-07T10:12:31;4.62;;;1.37;;
27833;SDS011;15200;50.570;7.244;2023-05-07T10:15:01;2.35;;;1.32;;
27833;SDS011;15200;50.570;7.244;2023-05-07T10:17:29;4.03;;;1.62;;
27833;SDS011;15200;50.570;7.244;2023-05-07T10:19:59;1.67;;;1.30;;
27833;SDS011;15200;50.570;7.244;2023-05-07T10:22:27;1.10;;;1.00;;
27833;SDS011;15200;50.570;7.244;2023-05-07T10:24:58;1.87;;;1.40;;
27833;SDS011;15200;50.570;7.244;2023-05-07T10:27:26;1.40;;;1.10;;
27833;SDS011;15200;50.570;7.244;2023-05-07T10:30:12;6.92;;;1.55;;
27833;SDS011;15200;50.570;7.244;2023-05-07T10:32:45;3.50;;;1.45;;
27833;SDS011;15200;50.570;7.244;2023-05-07T10:35:23;3.17;;;1.60;;
27833;SDS011;15200;50.570;7.244;2023-05-07T10:37:47;1.37;;;1.27;;
27833;SDS011;15200;50.570;7.244;2023-05-07T10:40:16;3.25;;;1.25;;
27833;SDS011;15200;50.570;7.244;2023-05-07T10:43:03;3.35;;;1.20;;
27833;SDS011;15200;50.570;7.244;2023-05-07T10:45:30;1.77;;;0.90;;
27833;SDS011;15200;50.570;7.244;2023-05-07T10:48:08;2.17;;;0.93;;
27833;SDS011;15200;50.570;7.244;2023-05-07T10:50:36;2.22;;;1.10;;
27833;SDS011;15200;50.570;7.244;2023-05-07T10:55:47;1.27;;;1.02;;
27833;SDS011;15200;50.570;7.244;2023-05-07T10:58:22;2.95;;;0.70;;
27833;SDS011;15200;50.570;7.244;2023-05-07T11:00:59;1.10;;;0.85;;
27833;SDS011;15200;50.570;7.244;2023-05-07T11:03:27;3.08;;;0.90;;
27833;SDS011;15200;50.570;7.244;2023-05-07T11:06:11;1.17;;;0.70;;
27833;SDS011;15200;50.570;7.244;2023-05-07T11:08:58;1.32;;;0.80;;
27833;SDS011;15200;50.570;7.244;2023-05-07T11:11:15;2.20;;;0.82;;
27833;SDS011;15200;50.570;7.244;2023-05-07T11:13:46;2.05;;;1.10;;
27833;SDS011;15200;50.570;7.244;2023-05-07T11:16:23;2.55;;;0.90;;
27833;SDS011;15200;50.570;7.244;2023-05-07T11:18:54;2.87;;;0.80;;
27833;SDS011;15200;50.570;7.244;2023-05-07T11:21:37;1.72;;;0.75;;
27833;SDS011;15200;50.570;7.244;2023-05-07T11:24:07;2.05;;;0.78;;
27833;SDS011;15200;50.570;7.244;2023-05-07T11:26:43;1.82;;;1.10;;
27833;SDS011;15200;50.570;7.244;2023-05-07T11:29:12;1.35;;;0.57;;
27833;SDS011;15200;50.570;7.244;2023-05-07T11:31:43;0.68;;;0.60;;
27833;SDS011;15200;50.570;7.244;2023-05-07T11:34:10;1.95;;;0.70;;
27833;SDS011;15200;50.570;7.244;2023-05-07T11:36:46;1.27;;;0.82;;
27833;SDS011;15200;50.570;7.244;2023-05-07T11:39:32;1.92;;;0.80;;
27833;SDS011;15200;50.570;7.244;2023-05-07T11:42:03;1.15;;;0.70;;
27833;SDS011;15200;50.570;7.244;2023-05-07T11:44:41;0.62;;;0.62;;
27833;SDS011;15200;50.570;7.244;2023-05-07T11:47:21;3.17;;;0.88;;
27833;SDS011;15200;50.570;7.244;2023-05-07T11:49:48;2.75;;;0.70;;
27833;SDS011;15200;50.570;7.244;2023-05-07T11:52:14;3.00;;;0.90;;
27833;SDS011;15200;50.570;7.244;2023-05-07T11:54:52;4.05;;;1.07;;
27833;SDS011;15200;50.570;7.244;2023-05-07T11:57:19;4.65;;;1.00;;
27833;SDS011;15200;50.570;7.244;2023-05-07T11:59:58;1.92;;;0.93;;
27833;SDS011;15200;50.570;7.244;2023-05-07T12:02:28;0.80;;;0.75;;
27833;SDS011;15200;50.570;7.244;2023-05-07T12:05:01;1.17;;;0.70;;
27833;SDS011;15200;50.570;7.244;2023-05-07T12:07:29;4.17;;;0.80;;
27833;SDS011;15200;50.570;7.244;2023-05-07T12:10:04;1.42;;;0.40;;
27833;SDS011;15200;50.570;7.244;2023-05-07T12:12:30;2.12;;;0.80;;
27833;SDS011;15200;50.570;7.244;2023-05-07T12:14:59;1.98;;;0.70;;
27833;SDS011;15200;50.570;7.244;2023-05-07T12:17:30;1.55;;;0.80;;
27833;SDS011;15200;50.570;7.244;2023-05-07T12:20:00;0.57;;;0.57;;
27833;SDS011;15200;50.570;7.244;2023-05-07T12:22:28;2.22;;;0.82;;
27833;SDS011;15200;50.570;7.244;2023-05-07T12:24:59;0.62;;;0.62;;
27833;SDS011;15200;50.570;7.244;2023-05-07T12:27:30;0.57;;;0.57;;
27833;SDS011;15200;50.570;7.244;2023-05-07T12:29:58;1.87;;;0.80;;
27833;SDS011;15200;50.570;7.244;2023-05-07T12:32:29;1.35;;;0.50;;
27833;SDS011;15200;50.570;7.244;2023-05-07T12:35:00;2.83;;;0.70;;
27833;SDS011;15200;50.570;7.244;2023-05-07T12:37:29;1.20;;;0.47;;
27833;SDS011;15200;50.570;7.244;2023-05-07T12:40:04;1.65;;;0.70;;
27833;SDS011;15200;50.570;7.244;2023-05-07T12:42:35;1.00;;;0.65;;
27833;SDS011;15200;50.570;7.244;2023-05-07T12:45:09;0.60;;;0.60;;
27833;SDS011;15200;50.570;7.244;2023-05-07T12:47:47;2.02;;;0.72;;
27833;SDS011;15200;50.570;7.244;2023-05-07T12:50:15;1.85;;;0.90;;
27833;SDS011;15200;50.570;7.244;2023-05-07T12:52:45;1.45;;;0.60;;
27833;SDS011;15200;50.570;7.244;2023-05-07T12:55:14;0.98;;;0.60;;
27833;SDS011;15200;50.570;7.244;2023-05-07T12:57:45;2.75;;;0.60;;
27833;SDS011;15200;50.570;7.244;2023-05-07T13:00:14;0.80;;;0.55;;
27833;SDS011;15200;50.570;7.244;2023-05-07T13:02:44;1.42;;;0.60;;
27833;SDS011;15200;50.570;7.244;2023-05-07T13:05:13;1.17;;;0.60;;
27833;SDS011;15200;50.570;7.244;2023-05-07T13:07:52;2.87;;;0.85;;
27833;SDS011;15200;50.570;7.244;2023-05-07T13:10:12;1.02;;;0.82;;
27833;SDS011;15200;50.570;7.244;2023-05-07T13:12:41;1.72;;;1.00;;
27833;SDS011;15200;50.570;7.244;2023-05-07T13:15:11;1.82;;;0.88;;
27833;SDS011;15200;50.570;7.244;2023-05-07T13:17:39;1.15;;;0.95;;
27833;SDS011;15200;50.570;7.244;2023-05-07T13:20:09;1.77;;;1.17;;
27833;SDS011;15200;50.570;7.244;2023-05-07T13:22:40;3.45;;;1.20;;
27833;SDS011;15200;50.570;7.244;2023-05-07T13:25:09;3.47;;;1.37;;
27833;SDS011;15200;50.570;7.244;2023-05-07T13:27:37;1.72;;;1.10;;
27833;SDS011;15200;50.570;7.244;2023-05-07T13:30:07;2.30;;;1.05;;
27833;SDS011;15200;50.570;7.244;2023-05-07T13:32:37;0.95;;;0.90;;
27833;SDS011;15200;50.570;7.244;2023-05-07T13:35:07;1.30;;;1.20;;
27833;SDS011;15200;50.570;7.244;2023-05-07T13:37:39;4.62;;;1.30;;
27833;SDS011;15200;50.570;7.244;2023-05-07T13:40:07;2.60;;;1.30;;
27833;SDS011;15200;50.570;7.244;2023-05-07T13:42:37;1.72;;;1.20;;
27833;SDS011;15200;50.570;7.244;2023-05-07T13:45:06;1.67;;;1.20;;
27833;SDS011;15200;50.570;7.244;2023-05-07T13:47:36;1.37;;;1.22;;
27833;SDS011;15200;50.570;7.244;2023-05-07T13:50:05;3.70;;;1.30;;
27833;SDS011;15200;50.570;7.244;2023-05-07T13:52:33;2.08;;;1.30;;
27833;SDS011;15200;50.570;7.244;2023-05-07T13:55:04;2.17;;;1.50;;
27833;SDS011;15200;50.570;7.244;2023-05-07T13:57:33;2.33;;;1.40;;
27833;SDS011;15200;50.570;7.244;2023-05-07T14:00:01;1.80;;;1.50;;
27833;SDS011;15200;50.570;7.244;2023-05-07T14:02:31;1.52;;;1.42;;
27833;SDS011;15200;50.570;7.244;2023-05-07T14:04:59;1.67;;;1.55;;
27833;SDS011;15200;50.570;7.244;2023-05-07T14:07:28;3.55;;;1.87;;
27833;SDS011;15200;50.570;7.244;2023-05-07T14:09:56;1.57;;;1.40;;
27833;SDS011;15200;50.570;7.244;2023-05-07T14:12:26;1.98;;;1.32;;
27833;SDS011;15200;50.570;7.244;2023-05-07T14:14:53;1.47;;;1.37;;
27833;SDS011;15200;50.570;7.244;2023-05-07T14:17:22;4.53;;;1.70;;
27833;SDS011;15200;50.570;7.244;2023-05-07T14:19:52;1.60;;;1.50;;
27833;SDS011;15200;50.570;7.244;2023-05-07T14:22:25;1.72;;;1.62;;
27833;SDS011;15200;50.570;7.244;2023-05-07T14:24:55;2.37;;;1.37;;
27833;SDS011;15200;50.570;7.244;2023-05-07T14:27:23;1.50;;;1.32;;
27833;SDS011;15200;50.570;7.244;2023-05-07T14:29:51;2.80;;;1.37;;
27833;SDS011;15200;50.570;7.244;2023-05-07T14:32:18;4.53;;;1.40;;
27833;SDS011;15200;50.570;7.244;2023-05-07T14:34:46;1.98;;;1.27;;
27833;SDS011;15200;50.570;7.244;2023-05-07T14:37:14;3.05;;;1.52;;
27833;SDS011;15200;50.570;7.244;2023-05-07T14:39:42;1.42;;;1.32;;
27833;SDS011;15200;50.570;7.244;2023-05-07T14:42:10;2.15;;;1.30;;
27833;SDS011;15200;50.570;7.244;2023-05-07T14:44:39;1.77;;;1.22;;
27833;SDS011;15200;50.570;7.244;2023-05-07T14:47:08;1.15;;;1.12;;
27833;SDS011;15200;50.570;7.244;2023-05-07T14:49:37;1.37;;;1.17;;
27833;SDS011;15200;50.570;7.244;2023-05-07T14:52:05;2.87;;;1.40;;
27833;SDS011;15200;50.570;7.244;2023-05-07T14:54:34;2.17;;;1.32;;
27833;SDS011;15200;50.570;7.244;2023-05-07T14:57:03;3.72;;;1.50;;
27833;SDS011;15200;50.570;7.244;2023-05-07T14:59:32;2.62;;;1.55;;
27833;SDS011;15200;50.570;7.244;2023-05-07T15:01:59;3.45;;;1.42;;
27833;SDS011;15200;50.570;7.244;2023-05-07T15:04:28;1.98;;;1.55;;
27833;SDS011;15200;50.570;7.244;2023-05-07T15:06:55;24.30;;;5.30;;